createdAt,value
2019-04-06T00:01:56.322Z,6.59
2019-04-06T00:04:27.889Z,6.58
2019-04-06T00:06:59.476Z,6.54
2019-04-06T00:09:31.072Z,6.52
2019-04-06T00:12:02.746Z,6.43
2019-04-06T00:14:36.035Z,6.42
2019-04-06T00:17:07.625Z,6.41
2019-04-06T00:19:39.340Z,6.33
2019-04-06T00:22:10.910Z,6.26
2019-04-06T00:24:42.473Z,6.25
2019-04-06T00:27:14.064Z,6.22
2019-04-06T00:29:45.627Z,6.19
2019-04-06T00:32:26.936Z,6.14
2019-04-06T00:34:58.501Z,6.15
2019-04-06T00:37:30.100Z,6.11
2019-04-06T00:40:01.689Z,6.07
2019-04-06T00:42:33.348Z,6.04
2019-04-06T00:45:05.498Z,6.02
2019-04-06T00:47:37.143Z,6.00
2019-04-06T00:50:08.974Z,6.00
2019-04-06T00:52:40.603Z,5.92
2019-04-06T00:55:12.234Z,5.91
2019-04-06T00:57:43.798Z,5.88
2019-04-06T01:00:15.612Z,5.86
2019-04-06T01:02:47.318Z,5.81
2019-04-06T01:05:18.845Z,5.78
2019-04-06T01:07:50.423Z,5.73
2019-04-06T01:10:22.057Z,5.70
2019-04-06T01:12:55.726Z,5.68
2019-04-06T01:15:27.307Z,5.65
2019-04-06T01:17:58.993Z,5.60
2019-04-06T01:20:30.687Z,5.56
2019-04-06T01:23:02.287Z,5.56
2019-04-06T01:25:33.867Z,5.57
2019-04-06T01:28:05.462Z,5.53
2019-04-06T01:30:37.333Z,5.50
2019-04-06T01:33:09.180Z,5.47
2019-04-06T01:35:40.836Z,5.49
2019-04-06T01:38:12.415Z,5.49
2019-04-06T01:40:43.977Z,5.45
2019-04-06T01:43:15.563Z,5.45
2019-04-06T01:45:47.123Z,5.42
2019-04-06T01:48:19.728Z,5.38
2019-04-06T01:50:51.375Z,5.37
2019-04-06T01:53:23.029Z,5.38
2019-04-06T01:55:54.866Z,5.34
2019-04-06T01:58:26.447Z,5.33
2019-04-06T02:01:06.276Z,5.29
2019-04-06T02:03:37.882Z,5.22
2019-04-06T02:06:09.413Z,5.23
2019-04-06T02:08:41.374Z,5.23
2019-04-06T02:11:12.996Z,5.26
2019-04-06T02:13:45.528Z,5.29
2019-04-06T02:16:17.095Z,5.24
2019-04-06T02:18:48.677Z,5.21
2019-04-06T02:21:20.309Z,5.24
2019-04-06T02:23:52.170Z,5.28
2019-04-06T02:26:30.183Z,5.29
2019-04-06T02:28:57.011Z,5.25
2019-04-06T02:31:52.665Z,5.27
2019-04-06T02:34:43.457Z,5.23
2019-04-06T02:37:46.626Z,5.21
2019-04-06T02:40:40.413Z,5.22
2019-04-06T02:43:20.816Z,5.24
2019-04-06T02:45:52.663Z,5.26
2019-04-06T02:48:24.528Z,5.24
2019-04-06T02:50:56.172Z,5.28
2019-04-06T02:53:27.788Z,5.28
2019-04-06T02:55:59.669Z,5.30
2019-04-06T02:58:31.434Z,5.33
2019-04-06T03:01:03.057Z,5.32
2019-04-06T03:03:34.922Z,5.24
2019-04-06T03:06:07.045Z,5.19
2019-04-06T03:08:39.785Z,5.15
2019-04-06T03:11:11.390Z,5.14
2019-04-06T03:13:43.211Z,5.12
2019-04-06T03:16:15.444Z,5.10
2019-04-06T03:18:46.948Z,5.05
2019-04-06T03:21:18.605Z,5.03
2019-04-06T03:23:52.206Z,5.03
2019-04-06T03:26:24.283Z,5.03
2019-04-06T03:28:56.123Z,4.95
2019-04-06T03:31:28.212Z,4.93
2019-04-06T03:34:00.208Z,4.95
2019-04-06T03:36:32.080Z,4.91
2019-04-06T03:39:05.215Z,4.88
2019-04-06T03:41:37.222Z,4.83
2019-04-06T03:44:08.954Z,4.91
2019-04-06T03:46:40.847Z,4.85
2019-04-06T03:49:12.791Z,4.90
2019-04-06T03:51:44.719Z,4.90
2019-04-06T03:54:16.303Z,4.88
2019-04-06T03:56:48.132Z,4.84
2019-04-06T03:59:19.939Z,4.85
2019-04-06T04:01:51.893Z,4.82
2019-04-06T04:04:23.786Z,4.86
2019-04-06T04:06:55.342Z,4.77
2019-04-06T04:09:27.258Z,4.71
2019-04-06T04:11:59.401Z,4.67
2019-04-06T04:14:31.244Z,4.69
2019-04-06T04:17:03.258Z,4.65
2019-04-06T04:19:35.351Z,4.68
2019-04-06T04:22:07.334Z,4.62
2019-04-06T04:24:39.307Z,4.73
2019-04-06T04:27:10.867Z,4.71
2019-04-06T04:29:42.773Z,4.66
2019-04-06T04:32:14.697Z,4.69
2019-04-06T04:34:46.566Z,4.74
2019-04-06T04:37:18.384Z,4.70
2019-04-06T04:39:50.242Z,4.70
2019-04-06T04:42:22.102Z,4.73
2019-04-06T04:44:53.929Z,4.73
2019-04-06T04:47:25.913Z,4.72
2019-04-06T04:49:57.838Z,4.71
2019-04-06T04:52:29.746Z,4.73
2019-04-06T04:55:01.365Z,4.74
2019-04-06T04:57:40.068Z,4.70
2019-04-06T05:00:07.415Z,4.69
2019-04-06T05:02:39.272Z,4.68
2019-04-06T05:05:12.288Z,4.69
2019-04-06T05:07:44.136Z,4.67
2019-04-06T05:10:16.108Z,4.68
2019-04-06T05:12:47.961Z,4.70
2019-04-06T05:15:34.407Z,4.80
2019-04-06T05:18:06.253Z,4.84
2019-04-06T05:20:38.120Z,4.85
2019-04-06T05:23:09.981Z,4.94
2019-04-06T05:25:41.580Z,5.00
2019-04-06T05:28:13.476Z,5.06
2019-04-06T05:30:45.491Z,5.07
2019-04-06T05:33:17.145Z,5.13
2019-04-06T05:35:49.013Z,5.16
2019-04-06T05:38:20.597Z,5.22
2019-04-06T05:40:52.214Z,5.29
2019-04-06T05:43:24.873Z,5.34
2019-04-06T05:45:56.466Z,5.46
2019-04-06T05:48:28.047Z,5.43
2019-04-06T05:50:59.648Z,5.42
2019-04-06T05:53:31.654Z,5.48
2019-04-06T05:56:03.557Z,5.57
2019-04-06T05:58:35.092Z,5.61
2019-04-06T06:01:10.185Z,5.66
2019-04-06T06:03:41.254Z,5.76
2019-04-06T06:06:13.429Z,5.80
2019-04-06T06:08:45.081Z,5.88
2019-04-06T06:11:16.679Z,5.96
2019-04-06T06:13:48.249Z,5.98
2019-04-06T06:16:19.931Z,6.03
2019-04-06T06:18:51.492Z,6.11
2019-04-06T06:21:23.112Z,6.18
2019-04-06T06:23:54.691Z,6.25
2019-04-06T06:26:26.338Z,6.31
2019-04-06T06:28:58.084Z,6.31
2019-04-06T06:31:29.661Z,6.38
2019-04-06T06:34:01.277Z,6.42
2019-04-06T06:36:32.852Z,6.51
2019-04-06T06:39:06.058Z,6.60
2019-04-06T06:41:38.744Z,6.64
2019-04-06T06:44:10.306Z,6.73
2019-04-06T06:46:41.843Z,6.81
2019-04-06T06:49:13.468Z,6.82
2019-04-06T06:51:45.061Z,6.90
2019-04-06T06:54:16.689Z,7.02
2019-04-06T06:56:48.286Z,7.09
2019-04-06T06:59:19.886Z,7.13
2019-04-06T07:01:51.691Z,7.23
2019-04-06T07:04:23.338Z,7.36
2019-04-06T07:06:54.945Z,7.48
2019-04-06T07:09:26.566Z,7.58
2019-04-06T07:11:58.261Z,7.68
2019-04-06T07:14:29.876Z,7.77
2019-04-06T07:17:01.485Z,7.86
2019-04-06T07:19:33.116Z,7.91
2019-04-06T07:22:04.739Z,7.97
2019-04-06T07:24:36.347Z,8.04
2019-04-06T07:27:07.942Z,8.11
2019-04-06T07:29:39.545Z,8.16
2019-04-06T07:32:11.122Z,8.26
2019-04-06T07:34:42.725Z,8.35
2019-04-06T07:37:14.334Z,8.46
2019-04-06T07:39:45.961Z,8.60
2019-04-06T07:42:17.578Z,8.74
2019-04-06T07:44:49.181Z,8.86
2019-04-06T07:47:20.869Z,9.00
2019-04-06T07:49:52.463Z,9.14
2019-04-06T07:52:24.083Z,9.23
2019-04-06T07:54:55.691Z,9.28
2019-04-06T07:57:27.491Z,9.41
2019-04-06T07:59:59.136Z,9.51
2019-04-06T08:02:30.721Z,9.63
2019-04-06T08:05:02.522Z,9.73
2019-04-06T08:07:34.441Z,9.82
2019-04-06T08:10:06.497Z,9.89
2019-04-06T08:12:38.114Z,9.98
2019-04-06T08:15:10.096Z,10.09
2019-04-06T08:17:41.732Z,10.18
2019-04-06T08:20:13.289Z,10.29
2019-04-06T08:22:44.976Z,10.42
2019-04-06T08:25:16.562Z,10.51
2019-04-06T08:27:48.247Z,10.61
2019-04-06T08:30:19.911Z,10.69
2019-04-06T08:32:51.554Z,10.80
2019-04-06T08:35:25.754Z,10.87
2019-04-06T08:37:56.509Z,10.96
2019-04-06T08:40:28.122Z,11.05
2019-04-06T08:42:59.770Z,11.17
2019-04-06T08:45:32.145Z,11.25
2019-04-06T08:48:03.937Z,11.29
2019-04-06T08:50:35.580Z,11.31
2019-04-06T08:53:07.187Z,11.41
2019-04-06T08:55:38.909Z,11.47
2019-04-06T08:58:10.518Z,11.45
2019-04-06T09:00:43.738Z,11.59
2019-04-06T09:03:15.418Z,11.75
2019-04-06T09:05:47.039Z,11.87
2019-04-06T09:08:18.686Z,11.85
2019-04-06T09:10:50.298Z,12.00
2019-04-06T09:13:23.172Z,12.11
2019-04-06T09:15:54.993Z,12.23
2019-04-06T09:18:28.699Z,12.22
2019-04-06T09:21:00.178Z,12.27
2019-04-06T09:23:31.884Z,12.28
2019-04-06T09:26:03.489Z,12.33
2019-04-06T09:28:35.246Z,12.36
2019-04-06T09:31:06.917Z,12.41
2019-04-06T09:33:38.647Z,12.47
2019-04-06T09:36:10.305Z,12.57
2019-04-06T09:38:41.950Z,12.70
2019-04-06T09:41:13.773Z,12.86
2019-04-06T09:43:45.350Z,13.09
2019-04-06T09:46:39.129Z,13.25
2019-04-06T09:49:38.102Z,13.37
2019-04-06T09:52:37.882Z,13.55
2019-04-06T09:55:27.490Z,13.73
2019-04-06T09:58:17.085Z,13.70
2019-04-06T10:01:06.901Z,13.78
2019-04-06T10:03:57.705Z,13.88
2019-04-06T10:06:51.911Z,14.08
2019-04-06T10:09:52.618Z,14.05
2019-04-06T10:12:49.856Z,14.41
2019-04-06T10:15:55.839Z,14.57
2019-04-06T10:18:33.767Z,14.75
2019-04-06T10:21:20.139Z,14.56
2019-04-06T10:24:16.671Z,14.46
2019-04-06T10:26:57.524Z,14.40
2019-04-06T10:29:48.837Z,14.37
2019-04-06T10:32:36.179Z,14.37
2019-04-06T10:35:30.016Z,14.50
2019-04-06T10:38:26.713Z,14.49
2019-04-06T10:41:19.791Z,14.38
2019-04-06T10:44:20.157Z,14.37
2019-04-06T10:47:26.264Z,14.38
2019-04-06T10:50:05.831Z,14.62
2019-04-06T10:52:55.095Z,14.84
2019-04-06T10:55:51.700Z,14.80
2019-04-06T10:58:51.044Z,14.80
2019-04-06T11:01:40.809Z,14.83
2019-04-06T11:04:20.516Z,15.26
2019-04-06T11:07:26.544Z,15.45
2019-04-06T11:10:15.942Z,15.20
2019-04-06T11:12:58.787Z,15.14
2019-04-06T11:15:46.348Z,15.07
2019-04-06T11:18:36.496Z,14.96
2019-04-06T11:21:25.562Z,15.04
2019-04-06T11:24:28.126Z,15.13
2019-04-06T11:27:17.352Z,15.11
2019-04-06T11:30:18.096Z,15.15
2019-04-06T11:33:07.533Z,15.26
2019-04-06T11:36:01.110Z,15.33
2019-04-06T11:38:50.000Z,15.38
2019-04-06T11:41:43.691Z,15.29
2019-04-06T11:44:21.206Z,15.17
2019-04-06T11:47:25.088Z,15.17
2019-04-06T11:50:14.980Z,15.10
2019-04-06T11:53:11.997Z,15.21
2019-04-06T11:56:08.709Z,15.23
2019-04-06T11:58:51.975Z,15.34
2019-04-06T12:01:32.012Z,15.30
2019-04-06T12:04:29.305Z,15.36
2019-04-06T12:07:22.651Z,15.40
2019-04-06T12:10:16.141Z,15.32
2019-04-06T12:12:58.148Z,15.47
2019-04-06T12:15:51.904Z,15.46
2019-04-06T12:18:51.578Z,15.38
2019-04-06T12:21:41.232Z,15.40
2019-04-06T12:24:26.891Z,15.31
2019-04-06T12:27:33.282Z,15.43
2019-04-06T12:30:39.375Z,15.63
2019-04-06T12:33:33.249Z,15.67
2019-04-06T12:36:28.480Z,15.81
2019-04-06T12:39:13.376Z,15.73
2019-04-06T12:42:02.773Z,15.61
2019-04-06T12:44:52.952Z,15.57
2019-04-06T12:47:43.550Z,15.58
2019-04-06T12:50:34.074Z,15.60
2019-04-06T12:53:18.788Z,15.69
2019-04-06T12:56:09.298Z,15.72
2019-04-06T12:58:55.328Z,15.86
2019-04-06T13:01:41.106Z,16.09
2019-04-06T13:04:30.343Z,16.27
2019-04-06T13:07:20.043Z,16.37
2019-04-06T13:10:19.530Z,16.41
2019-04-06T13:13:21.967Z,16.36
2019-04-06T13:16:02.940Z,16.36
2019-04-06T13:18:53.436Z,16.47
2019-04-06T13:21:47.531Z,16.62
2019-04-06T13:24:43.831Z,16.70
2019-04-06T13:27:34.312Z,16.70
2019-04-06T13:30:17.053Z,16.82
2019-04-06T13:33:03.631Z,16.94
2019-04-06T13:35:57.622Z,17.14
2019-04-06T13:38:47.114Z,17.18
2019-04-06T13:41:36.332Z,17.17
2019-04-06T13:44:22.864Z,17.22
2019-04-06T13:47:14.649Z,17.22
2019-04-06T13:49:59.187Z,17.22
2019-04-06T13:52:57.367Z,17.18
2019-04-06T13:55:45.187Z,17.13
2019-04-06T13:58:28.640Z,17.10
2019-04-06T14:01:25.184Z,17.17
2019-04-06T14:04:21.698Z,17.22
2019-04-06T14:07:12.422Z,17.30
2019-04-06T14:10:12.134Z,17.33
2019-04-06T14:13:09.582Z,17.30
2019-04-06T14:15:59.284Z,17.28
2019-04-06T14:18:56.953Z,17.26
2019-04-06T14:21:53.376Z,17.20
2019-04-06T14:24:32.874Z,17.17
2019-04-06T14:27:38.505Z,17.11
2019-04-06T14:30:22.496Z,17.17
2019-04-06T14:33:25.342Z,17.25
2019-04-06T14:36:15.171Z,17.36
2019-04-06T14:39:21.031Z,17.40
2019-04-06T14:42:23.131Z,17.44
2019-04-06T14:45:04.842Z,17.46
2019-04-06T14:48:03.860Z,17.41
2019-04-06T14:51:02.932Z,17.35
2019-04-06T14:53:43.457Z,17.38
2019-04-06T14:56:24.916Z,17.39
2019-04-06T14:59:10.446Z,17.30
2019-04-06T15:01:58.180Z,17.27
2019-04-06T15:04:39.018Z,17.22
2019-04-06T15:07:38.506Z,17.23
2019-04-06T15:10:44.285Z,17.21
2019-04-06T15:13:32.150Z,17.27
2019-04-06T15:16:18.184Z,17.28
2019-04-06T15:19:11.684Z,17.27
2019-04-06T15:22:06.412Z,17.30
2019-04-06T15:25:06.152Z,17.34
2019-04-06T15:27:52.536Z,17.41
2019-04-06T15:30:52.945Z,17.52
2019-04-06T15:34:02.067Z,17.61
2019-04-06T15:36:49.668Z,17.69
2019-04-06T15:39:36.044Z,17.73
2019-04-06T15:42:19.841Z,17.62
2019-04-06T15:45:04.161Z,17.54
2019-04-06T15:48:00.733Z,17.54
2019-04-06T15:50:42.674Z,17.53
2019-04-06T15:53:33.313Z,17.50
2019-04-06T15:56:32.351Z,17.54
2019-04-06T15:59:20.118Z,17.54
2019-04-06T16:02:09.950Z,17.60
2019-04-06T16:04:59.684Z,17.65
2019-04-06T16:07:50.305Z,17.70
2019-04-06T16:10:40.819Z,17.73
2019-04-06T16:13:32.131Z,17.80
2019-04-06T16:16:17.561Z,17.85
2019-04-06T16:19:00.596Z,17.93
2019-04-06T16:21:49.712Z,17.99
2019-04-06T16:24:52.414Z,18.00
2019-04-06T16:27:49.343Z,18.00
2019-04-06T16:30:42.641Z,18.04
2019-04-06T16:33:27.230Z,17.98
2019-04-06T16:36:10.372Z,17.97
2019-04-06T16:39:08.102Z,17.96
2019-04-06T16:41:56.843Z,17.91
2019-04-06T16:44:35.604Z,17.77
2019-04-06T16:47:16.369Z,17.62
2019-04-06T16:50:05.767Z,17.53
2019-04-06T16:53:14.977Z,17.46
2019-04-06T16:55:52.620Z,17.43
2019-04-06T16:58:42.272Z,17.36
2019-04-06T17:01:44.883Z,17.29
2019-04-06T17:04:41.673Z,17.20
2019-04-06T17:07:25.545Z,17.12
2019-04-06T17:10:31.314Z,17.04
2019-04-06T17:13:28.051Z,16.94
2019-04-06T17:16:18.032Z,16.88
2019-04-06T17:19:14.806Z,16.83
2019-04-06T17:22:11.436Z,16.80
2019-04-06T17:25:10.745Z,16.76
2019-04-06T17:28:04.319Z,16.72
2019-04-06T17:30:41.123Z,16.69
2019-04-06T17:33:35.319Z,16.64
2019-04-06T17:36:37.636Z,16.61
2019-04-06T17:39:40.340Z,16.50
2019-04-06T17:42:22.352Z,16.43
2019-04-06T17:45:18.914Z,16.37
2019-04-06T17:48:10.277Z,16.31
2019-04-06T17:51:06.606Z,16.25
2019-04-06T17:54:06.237Z,16.19
2019-04-06T17:56:46.605Z,16.14
2019-04-06T17:59:39.269Z,16.09
2019-04-06T18:02:28.425Z,16.03
2019-04-06T18:05:25.012Z,15.97
2019-04-06T18:08:08.273Z,15.89
2019-04-06T18:10:57.470Z,15.83
2019-04-06T18:13:49.831Z,15.77
2019-04-06T18:16:24.461Z,15.71
2019-04-06T18:18:56.498Z,15.65
2019-04-06T18:21:28.375Z,15.56
2019-04-06T18:24:00.039Z,15.51
2019-04-06T18:26:31.653Z,15.48
2019-04-06T18:29:03.321Z,15.42
2019-04-06T18:31:40.645Z,15.32
2019-04-06T18:34:12.457Z,15.24
2019-04-06T18:36:52.417Z,15.16
2019-04-06T18:39:25.531Z,15.08
2019-04-06T18:41:57.192Z,15.00
2019-04-06T18:44:29.014Z,14.93
2019-04-06T18:47:00.823Z,14.86
2019-04-06T18:49:33.123Z,14.83
2019-04-06T18:52:05.148Z,14.78
2019-04-06T18:54:37.018Z,14.75
2019-04-06T18:57:08.763Z,14.72
2019-04-06T18:59:40.381Z,14.66
2019-04-06T19:02:12.043Z,14.62
2019-04-06T19:04:44.701Z,14.57
2019-04-06T19:07:16.454Z,14.53
2019-04-06T19:09:48.978Z,14.47
2019-04-06T19:12:21.144Z,14.43
2019-04-06T19:14:54.186Z,14.39
2019-04-06T19:17:25.886Z,14.32
2019-04-06T19:19:57.485Z,14.27
2019-04-06T19:22:29.531Z,14.23
2019-04-06T19:25:01.302Z,14.19
2019-04-06T19:27:32.940Z,14.13
2019-04-06T19:30:06.887Z,14.06
2019-04-06T19:32:38.966Z,13.98
2019-04-06T19:35:11.166Z,13.94
2019-04-06T19:37:42.914Z,13.87
2019-04-06T19:40:15.631Z,13.85
2019-04-06T19:42:47.899Z,13.79
2019-04-06T19:45:19.695Z,13.71
2019-04-06T19:47:51.700Z,13.64
2019-04-06T19:50:23.362Z,13.63
2019-04-06T19:52:55.234Z,13.54
2019-04-06T19:55:26.910Z,13.48
2019-04-06T19:57:59.787Z,13.43
2019-04-06T20:00:31.419Z,13.37
2019-04-06T20:03:03.213Z,13.33
2019-04-06T20:05:36.358Z,13.27
2019-04-06T20:08:08.153Z,13.20
2019-04-06T20:10:39.827Z,13.18
2019-04-06T20:13:12.088Z,13.13
2019-04-06T20:15:44.174Z,13.08
2019-04-06T20:18:16.110Z,13.01
2019-04-06T20:20:48.048Z,12.95
2019-04-06T20:23:19.672Z,12.90
2019-04-06T20:25:51.959Z,12.86
2019-04-06T20:28:23.692Z,12.83
2019-04-06T20:30:55.494Z,12.76
2019-04-06T20:33:27.149Z,12.73
2019-04-06T20:35:58.794Z,12.67
2019-04-06T20:38:30.543Z,12.61
2019-04-06T20:41:02.282Z,12.56
2019-04-06T20:43:34.216Z,12.48
2019-04-06T20:46:06.378Z,12.44
2019-04-06T20:48:38.494Z,12.39
2019-04-06T20:51:10.535Z,12.35
2019-04-06T20:53:42.205Z,12.30
2019-04-06T20:56:14.118Z,12.27
2019-04-06T20:58:46.559Z,12.24
2019-04-06T21:01:18.199Z,12.18
2019-04-06T21:04:00.439Z,12.10
2019-04-06T21:06:23.438Z,12.05
2019-04-06T21:08:55.127Z,12.00
2019-04-06T21:11:26.735Z,11.97
2019-04-06T21:13:58.434Z,11.94
2019-04-06T21:16:30.078Z,11.93
2019-04-06T21:19:01.803Z,11.90
2019-04-06T21:21:35.267Z,11.83
2019-04-06T21:24:09.488Z,11.83
2019-04-06T21:26:42.220Z,11.75
2019-04-06T21:29:14.943Z,11.73
2019-04-06T21:31:46.569Z,11.67
2019-04-06T21:34:18.349Z,11.56
2019-04-06T21:36:51.062Z,11.53
2019-04-06T21:39:23.818Z,11.51
2019-04-06T21:41:55.470Z,11.48
2019-04-06T21:44:27.630Z,11.47
2019-04-06T21:46:59.225Z,11.49
2019-04-06T21:49:30.831Z,11.51
2019-04-06T21:52:02.447Z,11.52
2019-04-06T21:54:34.490Z,11.54
2019-04-06T21:57:06.252Z,11.53
2019-04-06T21:59:37.887Z,11.52
2019-04-06T22:02:09.498Z,11.50
2019-04-06T22:04:41.113Z,11.49
2019-04-06T22:07:12.965Z,11.49
2019-04-06T22:09:44.682Z,11.45
2019-04-06T22:12:20.281Z,11.41
2019-04-06T22:14:52.037Z,11.40
2019-04-06T22:17:24.290Z,11.36
2019-04-06T22:19:56.574Z,11.34
2019-04-06T22:22:28.192Z,11.25
2019-04-06T22:24:59.842Z,11.19
2019-04-06T22:27:31.766Z,11.10
2019-04-06T22:30:05.040Z,11.06
2019-04-06T22:32:36.741Z,11.02
2019-04-06T22:35:09.841Z,10.96
2019-04-06T22:37:41.893Z,10.92
2019-04-06T22:40:14.216Z,10.87
2019-04-06T22:42:45.973Z,10.85
2019-04-06T22:45:19.863Z,10.82
2019-04-06T22:47:53.069Z,10.80
2019-04-06T22:50:24.631Z,10.75
2019-04-06T22:52:56.225Z,10.75
2019-04-06T22:55:27.827Z,10.71
2019-04-06T22:58:00.519Z,10.69
2019-04-06T23:00:35.242Z,10.67
2019-04-06T23:03:29.160Z,10.57
2019-04-06T23:06:04.371Z,10.50
2019-04-06T23:08:35.955Z,10.39
2019-04-06T23:11:08.074Z,10.33
2019-04-06T23:13:39.804Z,10.28
2019-04-06T23:16:11.446Z,10.27
2019-04-06T23:18:43.072Z,10.27
2019-04-06T23:21:14.769Z,10.23
2019-04-06T23:23:46.499Z,10.22
2019-04-06T23:26:18.562Z,10.20
2019-04-06T23:28:50.345Z,10.18
2019-04-06T23:31:22.402Z,10.17
2019-04-06T23:33:54.239Z,10.14
2019-04-06T23:36:26.063Z,10.10
2019-04-06T23:38:57.688Z,10.09
2019-04-06T23:41:29.252Z,10.02
2019-04-06T23:44:01.469Z,9.99
2019-04-06T23:46:33.109Z,9.91
2019-04-06T23:49:04.706Z,9.89
2019-04-06T23:51:36.285Z,9.80
2019-04-06T23:54:07.928Z,9.75
2019-04-06T23:56:39.480Z,9.72
2019-04-06T23:59:11.083Z,9.67
